sensor_id;sensor_type;location;lat;lon;timestamp;temperature;humidity
21149;DHT22;10732;51.472;6.466;2023-08-01T00:01:58;16.20;99.90
21149;DHT22;10732;51.472;6.466;2023-08-01T00:04:24;16.20;99.90
21149;DHT22;10732;51.472;6.466;2023-08-01T00:06:49;16.20;99.90
21149;DHT22;10732;51.472;6.466;2023-08-01T00:09:15;16.20;99.90
21149;DHT22;10732;51.472;6.466;2023-08-01T00:11:40;16.20;99.90
21149;DHT22;10732;51.472;6.466;2023-08-01T00:14:06;16.20;99.90
21149;DHT22;10732;51.472;6.466;2023-08-01T00:16:31;16.20;99.90
21149;DHT22;10732;51.472;6.466;2023-08-01T00:18:57;16.30;99.90
21149;DHT22;10732;51.472;6.466;2023-08-01T00:21:23;16.30;99.90
21149;DHT22;10732;51.472;6.466;2023-08-01T00:23:48;16.30;99.90
21149;DHT22;10732;51.472;6.466;2023-08-01T00:26:14;16.30;99.90
21149;DHT22;10732;51.472;6.466;2023-08-01T00:28:40;16.30;99.90
21149;DHT22;10732;51.472;6.466;2023-08-01T00:31:06;16.30;99.90
21149;DHT22;10732;51.472;6.466;2023-08-01T00:33:34;16.30;99.90
21149;DHT22;10732;51.472;6.466;2023-08-01T00:36:00;16.30;99.90
21149;DHT22;10732;51.472;6.466;2023-08-01T00:38:25;16.30;99.90
21149;DHT22;10732;51.472;6.466;2023-08-01T00:40:51;16.30;99.90
21149;DHT22;10732;51.472;6.466;2023-08-01T00:43:17;16.40;99.90
21149;DHT22;10732;51.472;6.466;2023-08-01T00:45:42;16.30;99.90
21149;DHT22;10732;51.472;6.466;2023-08-01T00:48:08;16.30;99.90
21149;DHT22;10732;51.472;6.466;2023-08-01T00:50:34;16.30;99.90
21149;DHT22;10732;51.472;6.466;2023-08-01T00:53:00;16.30;99.90
21149;DHT22;10732;51.472;6.466;2023-08-01T00:55:27;16.30;99.90
21149;DHT22;10732;51.472;6.466;2023-08-01T00:57:54;16.30;99.90
21149;DHT22;10732;51.472;6.466;2023-08-01T01:00:20;16.30;99.90
21149;DHT22;10732;51.472;6.466;2023-08-01T01:02:45;16.30;99.90
21149;DHT22;10732;51.472;6.466;2023-08-01T01:05:12;16.30;99.90
21149;DHT22;10732;51.472;6.466;2023-08-01T01:07:39;16.20;99.90
21149;DHT22;10732;51.472;6.466;2023-08-01T01:10:05;16.10;99.90
21149;DHT22;10732;51.472;6.466;2023-08-01T01:12:31;16.10;99.90
21149;DHT22;10732;51.472;6.466;2023-08-01T01:14:57;16.00;99.90
21149;DHT22;10732;51.472;6.466;2023-08-01T01:17:22;15.90;99.90
21149;DHT22;10732;51.472;6.466;2023-08-01T01:19:48;15.90;99.90
21149;DHT22;10732;51.472;6.466;2023-08-01T01:22:17;15.90;99.90
21149;DHT22;10732;51.472;6.466;2023-08-01T01:24:43;15.90;99.90
21149;DHT22;10732;51.472;6.466;2023-08-01T01:27:10;15.90;99.90
21149;DHT22;10732;51.472;6.466;2023-08-01T01:29:37;16.00;99.90
21149;DHT22;10732;51.472;6.466;2023-08-01T01:32:05;16.00;99.90
21149;DHT22;10732;51.472;6.466;2023-08-01T01:34:31;16.00;99.90
21149;DHT22;10732;51.472;6.466;2023-08-01T01:36:57;16.00;99.90
21149;DHT22;10732;51.472;6.466;2023-08-01T01:39:22;16.00;99.90
21149;DHT22;10732;51.472;6.466;2023-08-01T01:41:48;16.10;99.90
21149;DHT22;10732;51.472;6.466;2023-08-01T01:44:13;16.10;99.90
21149;DHT22;10732;51.472;6.466;2023-08-01T01:46:39;16.10;99.90
21149;DHT22;10732;51.472;6.466;2023-08-01T01:49:04;16.10;99.90
21149;DHT22;10732;51.472;6.466;2023-08-01T01:51:30;16.10;99.90
21149;DHT22;10732;51.472;6.466;2023-08-01T01:53:56;16.10;99.90
21149;DHT22;10732;51.472;6.466;2023-08-01T01:56:22;16.10;99.90
21149;DHT22;10732;51.472;6.466;2023-08-01T01:58:47;16.10;99.90
21149;DHT22;10732;51.472;6.466;2023-08-01T02:01:13;16.00;99.90
21149;DHT22;10732;51.472;6.466;2023-08-01T02:03:39;16.00;99.90
21149;DHT22;10732;51.472;6.466;2023-08-01T02:06:04;16.00;99.90
21149;DHT22;10732;51.472;6.466;2023-08-01T02:08:30;16.00;99.90
21149;DHT22;10732;51.472;6.466;2023-08-01T02:10:56;16.00;99.90
21149;DHT22;10732;51.472;6.466;2023-08-01T02:13:24;16.00;99.90
21149;DHT22;10732;51.472;6.466;2023-08-01T02:15:49;16.00;99.90
21149;DHT22;10732;51.472;6.466;2023-08-01T02:18:15;16.00;99.90
21149;DHT22;10732;51.472;6.466;2023-08-01T02:20:41;16.00;99.90
21149;DHT22;10732;51.472;6.466;2023-08-01T02:23:06;16.00;99.90
21149;DHT22;10732;51.472;6.466;2023-08-01T02:25:32;16.00;99.90
21149;DHT22;10732;51.472;6.466;2023-08-01T02:27:57;15.90;99.90
21149;DHT22;10732;51.472;6.466;2023-08-01T02:30:23;15.90;99.90
21149;DHT22;10732;51.472;6.466;2023-08-01T02:32:48;15.90;99.90
21149;DHT22;10732;51.472;6.466;2023-08-01T02:35:14;15.90;99.90
21149;DHT22;10732;51.472;6.466;2023-08-01T02:37:39;15.80;99.90
21149;DHT22;10732;51.472;6.466;2023-08-01T02:40:08;15.80;99.90
21149;DHT22;10732;51.472;6.466;2023-08-01T02:42:34;15.80;99.90
21149;DHT22;10732;51.472;6.466;2023-08-01T02:44:59;15.70;99.90
21149;DHT22;10732;51.472;6.466;2023-08-01T02:47:25;15.70;99.90
21149;DHT22;10732;51.472;6.466;2023-08-01T02:49:50;15.70;99.90
21149;DHT22;10732;51.472;6.466;2023-08-01T02:52:16;15.70;99.90
21149;DHT22;10732;51.472;6.466;2023-08-01T02:54:41;15.60;99.90
21149;DHT22;10732;51.472;6.466;2023-08-01T02:57:07;15.60;99.90
21149;DHT22;10732;51.472;6.466;2023-08-01T02:59:32;15.50;99.90
21149;DHT22;10732;51.472;6.466;2023-08-01T03:01:58;15.50;99.90
21149;DHT22;10732;51.472;6.466;2023-08-01T03:04:24;15.50;99.90
21149;DHT22;10732;51.472;6.466;2023-08-01T03:06:50;15.50;99.90
21149;DHT22;10732;51.472;6.466;2023-08-01T03:09:15;15.50;99.90
21149;DHT22;10732;51.472;6.466;2023-08-01T03:11:41;15.50;99.90
21149;DHT22;10732;51.472;6.466;2023-08-01T03:14:07;15.50;99.90
21149;DHT22;10732;51.472;6.466;2023-08-01T03:16:32;15.40;99.90
21149;DHT22;10732;51.472;6.466;2023-08-01T03:18:58;15.40;99.90
21149;DHT22;10732;51.472;6.466;2023-08-01T03:21:32;15.50;99.90
21149;DHT22;10732;51.472;6.466;2023-08-01T03:23:59;15.40;99.90
21149;DHT22;10732;51.472;6.466;2023-08-01T03:26:24;15.40;99.90
21149;DHT22;10732;51.472;6.466;2023-08-01T03:28:50;15.50;99.90
21149;DHT22;10732;51.472;6.466;2023-08-01T03:31:15;15.40;99.90
21149;DHT22;10732;51.472;6.466;2023-08-01T03:33:41;15.40;99.90
21149;DHT22;10732;51.472;6.466;2023-08-01T03:36:06;15.40;99.90
21149;DHT22;10732;51.472;6.466;2023-08-01T03:38:32;15.40;99.90
21149;DHT22;10732;51.472;6.466;2023-08-01T03:40:58;15.40;99.90
21149;DHT22;10732;51.472;6.466;2023-08-01T03:43:23;15.40;99.90
21149;DHT22;10732;51.472;6.466;2023-08-01T03:45:51;15.40;99.90
21149;DHT22;10732;51.472;6.466;2023-08-01T03:48:16;15.40;99.90
21149;DHT22;10732;51.472;6.466;2023-08-01T03:50:42;15.30;99.90
21149;DHT22;10732;51.472;6.466;2023-08-01T03:53:07;15.30;99.90
21149;DHT22;10732;51.472;6.466;2023-08-01T03:55:33;15.30;99.90
21149;DHT22;10732;51.472;6.466;2023-08-01T03:57:59;15.30;99.90
21149;DHT22;10732;51.472;6.466;2023-08-01T04:00:24;15.30;99.90
21149;DHT22;10732;51.472;6.466;2023-08-01T04:02:50;15.20;99.90
21149;DHT22;10732;51.472;6.466;2023-08-01T04:05:16;15.30;99.90
21149;DHT22;10732;51.472;6.466;2023-08-01T04:07:41;15.30;99.90
21149;DHT22;10732;51.472;6.466;2023-08-01T04:10:07;15.30;99.90
21149;DHT22;10732;51.472;6.466;2023-08-01T04:12:33;15.30;99.90
21149;DHT22;10732;51.472;6.466;2023-08-01T04:15:00;15.30;99.90
21149;DHT22;10732;51.472;6.466;2023-08-01T04:17:26;15.30;99.90
21149;DHT22;10732;51.472;6.466;2023-08-01T04:19:52;15.30;99.90
21149;DHT22;10732;51.472;6.466;2023-08-01T04:22:17;15.40;99.90
21149;DHT22;10732;51.472;6.466;2023-08-01T04:24:43;15.30;99.90
21149;DHT22;10732;51.472;6.466;2023-08-01T04:27:08;15.30;99.90
21149;DHT22;10732;51.472;6.466;2023-08-01T04:29:34;15.30;99.90
21149;DHT22;10732;51.472;6.466;2023-08-01T04:32:00;15.30;99.90
21149;DHT22;10732;51.472;6.466;2023-08-01T04:34:25;15.30;99.90
21149;DHT22;10732;51.472;6.466;2023-08-01T04:36:51;15.30;99.90
21149;DHT22;10732;51.472;6.466;2023-08-01T04:39:16;15.30;99.90
21149;DHT22;10732;51.472;6.466;2023-08-01T04:41:42;15.30;99.90
21149;DHT22;10732;51.472;6.466;2023-08-01T04:44:07;15.30;99.90
21149;DHT22;10732;51.472;6.466;2023-08-01T04:46:33;15.40;99.90
21149;DHT22;10732;51.472;6.466;2023-08-01T04:48:59;15.30;99.90
21149;DHT22;10732;51.472;6.466;2023-08-01T04:51:25;15.40;99.90
21149;DHT22;10732;51.472;6.466;2023-08-01T04:53:50;15.30;99.90
21149;DHT22;10732;51.472;6.466;2023-08-01T04:56:16;15.40;99.90
21149;DHT22;10732;51.472;6.466;2023-08-01T04:58:42;15.40;99.90
21149;DHT22;10732;51.472;6.466;2023-08-01T05:01:07;15.30;99.90
21149;DHT22;10732;51.472;6.466;2023-08-01T05:03:33;15.40;99.90
21149;DHT22;10732;51.472;6.466;2023-08-01T05:05:58;15.40;99.90
21149;DHT22;10732;51.472;6.466;2023-08-01T05:08:24;15.40;99.90
21149;DHT22;10732;51.472;6.466;2023-08-01T05:10:49;15.40;99.90
21149;DHT22;10732;51.472;6.466;2023-08-01T05:13:15;15.40;99.90
21149;DHT22;10732;51.472;6.466;2023-08-01T05:15:44;15.40;99.90
21149;DHT22;10732;51.472;6.466;2023-08-01T05:18:10;15.40;99.90
21149;DHT22;10732;51.472;6.466;2023-08-01T05:20:36;15.50;99.90
21149;DHT22;10732;51.472;6.466;2023-08-01T05:23:01;15.50;99.90
21149;DHT22;10732;51.472;6.466;2023-08-01T05:25:27;15.50;99.90
21149;DHT22;10732;51.472;6.466;2023-08-01T05:27:52;15.50;99.90
21149;DHT22;10732;51.472;6.466;2023-08-01T05:30:18;15.60;99.90
21149;DHT22;10732;51.472;6.466;2023-08-01T05:32:43;15.60;99.90
21149;DHT22;10732;51.472;6.466;2023-08-01T05:35:10;15.60;99.90
21149;DHT22;10732;51.472;6.466;2023-08-01T05:37:36;15.60;99.90
21149;DHT22;10732;51.472;6.466;2023-08-01T05:40:05;15.80;99.90
21149;DHT22;10732;51.472;6.466;2023-08-01T05:42:30;15.90;99.90
21149;DHT22;10732;51.472;6.466;2023-08-01T05:44:56;15.90;99.90
21149;DHT22;10732;51.472;6.466;2023-08-01T05:47:21;15.90;99.90
21149;DHT22;10732;51.472;6.466;2023-08-01T05:49:50;16.00;99.90
21149;DHT22;10732;51.472;6.466;2023-08-01T05:52:15;16.10;99.90
21149;DHT22;10732;51.472;6.466;2023-08-01T05:54:41;16.10;99.90
21149;DHT22;10732;51.472;6.466;2023-08-01T05:57:07;16.00;99.90
21149;DHT22;10732;51.472;6.466;2023-08-01T05:59:33;16.00;99.90
21149;DHT22;10732;51.472;6.466;2023-08-01T06:01:59;16.00;99.90
21149;DHT22;10732;51.472;6.466;2023-08-01T06:04:25;16.00;99.90
21149;DHT22;10732;51.472;6.466;2023-08-01T06:06:50;16.00;99.90
21149;DHT22;10732;51.472;6.466;2023-08-01T06:09:16;16.10;99.90
21149;DHT22;10732;51.472;6.466;2023-08-01T06:11:41;16.10;99.90
21149;DHT22;10732;51.472;6.466;2023-08-01T06:14:07;16.00;99.90
21149;DHT22;10732;51.472;6.466;2023-08-01T06:16:33;16.00;99.90
21149;DHT22;10732;51.472;6.466;2023-08-01T06:18:59;16.10;99.90
21149;DHT22;10732;51.472;6.466;2023-08-01T06:21:24;16.10;99.90
21149;DHT22;10732;51.472;6.466;2023-08-01T06:23:50;16.20;99.90
21149;DHT22;10732;51.472;6.466;2023-08-01T06:26:16;16.30;99.90
21149;DHT22;10732;51.472;6.466;2023-08-01T06:28:42;16.40;99.90
21149;DHT22;10732;51.472;6.466;2023-08-01T06:31:07;16.80;99.90
21149;DHT22;10732;51.472;6.466;2023-08-01T06:33:33;17.20;99.90
21149;DHT22;10732;51.472;6.466;2023-08-01T06:35:58;17.30;99.90
21149;DHT22;10732;51.472;6.466;2023-08-01T06:38:24;17.30;99.90
21149;DHT22;10732;51.472;6.466;2023-08-01T06:40:49;17.30;99.90
21149;DHT22;10732;51.472;6.466;2023-08-01T06:43:15;17.50;99.90
21149;DHT22;10732;51.472;6.466;2023-08-01T06:45:40;17.50;99.90
21149;DHT22;10732;51.472;6.466;2023-08-01T06:48:06;17.40;99.90
21149;DHT22;10732;51.472;6.466;2023-08-01T06:50:31;17.90;99.90
21149;DHT22;10732;51.472;6.466;2023-08-01T06:52:57;18.30;99.90
21149;DHT22;10732;51.472;6.466;2023-08-01T06:55:22;18.30;99.90
21149;DHT22;10732;51.472;6.466;2023-08-01T06:57:48;18.30;99.90
21149;DHT22;10732;51.472;6.466;2023-08-01T07:00:14;18.20;99.90
21149;DHT22;10732;51.472;6.466;2023-08-01T07:02:39;18.00;99.90
21149;DHT22;10732;51.472;6.466;2023-08-01T07:05:05;17.80;99.90
21149;DHT22;10732;51.472;6.466;2023-08-01T07:07:31;17.60;99.90
21149;DHT22;10732;51.472;6.466;2023-08-01T07:09:56;17.40;99.90
21149;DHT22;10732;51.472;6.466;2023-08-01T07:12:22;17.30;99.90
21149;DHT22;10732;51.472;6.466;2023-08-01T07:14:47;17.30;99.90
21149;DHT22;10732;51.472;6.466;2023-08-01T07:17:13;17.30;99.90
21149;DHT22;10732;51.472;6.466;2023-08-01T07:19:38;17.20;99.90
21149;DHT22;10732;51.472;6.466;2023-08-01T07:22:04;17.50;99.90
21149;DHT22;10732;51.472;6.466;2023-08-01T07:24:29;19.30;99.90
21149;DHT22;10732;51.472;6.466;2023-08-01T07:26:55;20.30;99.90
21149;DHT22;10732;51.472;6.466;2023-08-01T07:29:20;20.60;99.90
21149;DHT22;10732;51.472;6.466;2023-08-01T07:31:46;20.60;99.90
21149;DHT22;10732;51.472;6.466;2023-08-01T07:34:11;20.30;99.90
21149;DHT22;10732;51.472;6.466;2023-08-01T07:36:37;20.50;99.90
21149;DHT22;10732;51.472;6.466;2023-08-01T07:39:03;20.50;99.90
21149;DHT22;10732;51.472;6.466;2023-08-01T07:41:29;19.80;99.90
21149;DHT22;10732;51.472;6.466;2023-08-01T07:43:54;19.00;99.90
21149;DHT22;10732;51.472;6.466;2023-08-01T07:46:20;19.30;99.90
21149;DHT22;10732;51.472;6.466;2023-08-01T07:48:45;19.20;99.90
21149;DHT22;10732;51.472;6.466;2023-08-01T07:51:11;19.00;99.90
21149;DHT22;10732;51.472;6.466;2023-08-01T07:53:37;18.90;99.90
21149;DHT22;10732;51.472;6.466;2023-08-01T07:56:03;19.20;99.90
21149;DHT22;10732;51.472;6.466;2023-08-01T07:58:29;19.30;99.90
21149;DHT22;10732;51.472;6.466;2023-08-01T08:00:55;18.60;99.90
21149;DHT22;10732;51.472;6.466;2023-08-01T08:03:20;18.30;99.90
21149;DHT22;10732;51.472;6.466;2023-08-01T08:05:49;18.20;99.90
21149;DHT22;10732;51.472;6.466;2023-08-01T08:08:14;18.30;99.90
21149;DHT22;10732;51.472;6.466;2023-08-01T08:10:40;18.40;99.90
21149;DHT22;10732;51.472;6.466;2023-08-01T08:13:05;18.80;99.90
21149;DHT22;10732;51.472;6.466;2023-08-01T08:15:31;19.10;99.90
21149;DHT22;10732;51.472;6.466;2023-08-01T08:18:00;19.30;99.90
21149;DHT22;10732;51.472;6.466;2023-08-01T08:20:26;21.10;99.90
21149;DHT22;10732;51.472;6.466;2023-08-01T08:22:52;21.10;99.90
21149;DHT22;10732;51.472;6.466;2023-08-01T08:25:17;21.30;1.00
21149;DHT22;10732;51.472;6.466;2023-08-01T08:27:43;22.00;1.00
21149;DHT22;10732;51.472;6.466;2023-08-01T08:30:09;22.00;1.00
21149;DHT22;10732;51.472;6.466;2023-08-01T08:32:35;21.50;1.00
21149;DHT22;10732;51.472;6.466;2023-08-01T08:35:01;22.90;1.00
21149;DHT22;10732;51.472;6.466;2023-08-01T08:37:26;23.70;1.00
21149;DHT22;10732;51.472;6.466;2023-08-01T08:39:52;24.20;99.90
21149;DHT22;10732;51.472;6.466;2023-08-01T08:42:18;23.80;99.90
21149;DHT22;10732;51.472;6.466;2023-08-01T08:44:48;23.10;99.90
21149;DHT22;10732;51.472;6.466;2023-08-01T08:47:17;23.30;99.90
21149;DHT22;10732;51.472;6.466;2023-08-01T08:49:43;23.50;1.00
21149;DHT22;10732;51.472;6.466;2023-08-01T08:52:10;23.50;1.00
21149;DHT22;10732;51.472;6.466;2023-08-01T08:54:37;23.50;18.60
21149;DHT22;10732;51.472;6.466;2023-08-01T08:57:05;24.80;1.00
21149;DHT22;10732;51.472;6.466;2023-08-01T08:59:32;24.90;99.90
21149;DHT22;10732;51.472;6.466;2023-08-01T09:01:58;23.90;1.00
21149;DHT22;10732;51.472;6.466;2023-08-01T09:04:27;24.10;1.00
21149;DHT22;10732;51.472;6.466;2023-08-01T09:06:56;24.20;1.00
21149;DHT22;10732;51.472;6.466;2023-08-01T09:09:23;24.40;99.90
21149;DHT22;10732;51.472;6.466;2023-08-01T09:11:52;24.40;99.90
21149;DHT22;10732;51.472;6.466;2023-08-01T09:14:19;24.90;99.90
21149;DHT22;10732;51.472;6.466;2023-08-01T09:16:46;26.20;99.90
21149;DHT22;10732;51.472;6.466;2023-08-01T09:19:19;26.10;99.90
21149;DHT22;10732;51.472;6.466;2023-08-01T09:21:46;24.80;99.90
21149;DHT22;10732;51.472;6.466;2023-08-01T09:24:13;26.00;98.80
21149;DHT22;10732;51.472;6.466;2023-08-01T09:26:39;27.40;1.00
21149;DHT22;10732;51.472;6.466;2023-08-01T09:29:06;26.20;1.00
21149;DHT22;10732;51.472;6.466;2023-08-01T09:31:39;26.90;1.00
21149;DHT22;10732;51.472;6.466;2023-08-01T09:34:17;26.70;1.00
21149;DHT22;10732;51.472;6.466;2023-08-01T09:36:42;26.40;1.00
21149;DHT22;10732;51.472;6.466;2023-08-01T09:39:08;26.20;1.00
21149;DHT22;10732;51.472;6.466;2023-08-01T09:41:33;25.60;1.00
21149;DHT22;10732;51.472;6.466;2023-08-01T09:43:59;25.30;99.90
21149;DHT22;10732;51.472;6.466;2023-08-01T09:46:25;25.60;56.90
21149;DHT22;10732;51.472;6.466;2023-08-01T09:48:51;25.70;1.00
21149;DHT22;10732;51.472;6.466;2023-08-01T09:51:17;26.00;1.00
21149;DHT22;10732;51.472;6.466;2023-08-01T09:53:51;25.40;1.00
21149;DHT22;10732;51.472;6.466;2023-08-01T09:56:25;24.90;99.90
21149;DHT22;10732;51.472;6.466;2023-08-01T09:58:53;23.80;1.00
21149;DHT22;10732;51.472;6.466;2023-08-01T10:01:21;24.90;99.90
21149;DHT22;10732;51.472;6.466;2023-08-01T10:03:51;25.60;17.90
21149;DHT22;10732;51.472;6.466;2023-08-01T10:06:22;26.10;1.00
21149;DHT22;10732;51.472;6.466;2023-08-01T10:08:49;26.10;1.00
21149;DHT22;10732;51.472;6.466;2023-08-01T10:11:17;24.90;1.00
21149;DHT22;10732;51.472;6.466;2023-08-01T10:13:43;24.10;99.90
21149;DHT22;10732;51.472;6.466;2023-08-01T10:16:09;23.70;99.90
21149;DHT22;10732;51.472;6.466;2023-08-01T10:18:36;22.90;1.00
21149;DHT22;10732;51.472;6.466;2023-08-01T10:21:21;22.40;99.90
21149;DHT22;10732;51.472;6.466;2023-08-01T10:23:47;21.90;1.00
21149;DHT22;10732;51.472;6.466;2023-08-01T10:26:14;21.50;1.00
21149;DHT22;10732;51.472;6.466;2023-08-01T10:28:41;20.70;1.00
21149;DHT22;10732;51.472;6.466;2023-08-01T10:31:14;20.30;1.00
21149;DHT22;10732;51.472;6.466;2023-08-01T10:33:44;19.80;99.90
21149;DHT22;10732;51.472;6.466;2023-08-01T10:36:14;19.40;99.90
21149;DHT22;10732;51.472;6.466;2023-08-01T10:38:57;19.10;99.90
21149;DHT22;10732;51.472;6.466;2023-08-01T10:41:35;19.20;99.90
21149;DHT22;10732;51.472;6.466;2023-08-01T10:44:13;18.90;99.90
21149;DHT22;10732;51.472;6.466;2023-08-01T10:49:18;18.60;99.90
21149;DHT22;10732;51.472;6.466;2023-08-01T10:51:45;18.40;99.90
21149;DHT22;10732;51.472;6.466;2023-08-01T10:54:24;18.50;99.90
21149;DHT22;10732;51.472;6.466;2023-08-01T10:56:52;18.70;99.90
21149;DHT22;10732;51.472;6.466;2023-08-01T10:59:18;19.20;99.90
21149;DHT22;10732;51.472;6.466;2023-08-01T11:01:49;19.00;1.00
21149;DHT22;10732;51.472;6.466;2023-08-01T11:04:16;18.90;1.00
21149;DHT22;10732;51.472;6.466;2023-08-01T11:06:50;18.80;13.80
21149;DHT22;10732;51.472;6.466;2023-08-01T11:09:21;18.50;99.90
21149;DHT22;10732;51.472;6.466;2023-08-01T11:11:52;18.20;99.90
21149;DHT22;10732;51.472;6.466;2023-08-01T11:14:22;18.20;99.90
21149;DHT22;10732;51.472;6.466;2023-08-01T11:16:49;18.30;1.00
21149;DHT22;10732;51.472;6.466;2023-08-01T11:19:24;19.20;1.00
21149;DHT22;10732;51.472;6.466;2023-08-01T11:21:51;20.30;99.90
21149;DHT22;10732;51.472;6.466;2023-08-01T11:24:22;21.10;95.50
21149;DHT22;10732;51.472;6.466;2023-08-01T11:26:49;21.30;1.00
21149;DHT22;10732;51.472;6.466;2023-08-01T11:29:16;21.20;1.00
21149;DHT22;10732;51.472;6.466;2023-08-01T11:31:58;21.00;1.00
21149;DHT22;10732;51.472;6.466;2023-08-01T11:34:24;21.70;1.00
21149;DHT22;10732;51.472;6.466;2023-08-01T11:36:50;21.80;1.00
21149;DHT22;10732;51.472;6.466;2023-08-01T11:39:16;21.40;1.00
21149;DHT22;10732;51.472;6.466;2023-08-01T11:41:43;21.00;1.00
21149;DHT22;10732;51.472;6.466;2023-08-01T11:44:09;20.70;1.00
21149;DHT22;10732;51.472;6.466;2023-08-01T11:46:37;20.80;60.30
21149;DHT22;10732;51.472;6.466;2023-08-01T11:49:05;20.90;1.00
21149;DHT22;10732;51.472;6.466;2023-08-01T11:51:39;20.80;1.00
21149;DHT22;10732;51.472;6.466;2023-08-01T11:54:04;20.90;1.00
21149;DHT22;10732;51.472;6.466;2023-08-01T11:56:31;20.50;1.00
21149;DHT22;10732;51.472;6.466;2023-08-01T11:58:56;20.70;99.90
21149;DHT22;10732;51.472;6.466;2023-08-01T12:01:22;20.70;1.00
21149;DHT22;10732;51.472;6.466;2023-08-01T12:03:50;20.30;1.00
21149;DHT22;10732;51.472;6.466;2023-08-01T12:06:18;20.20;99.90
21149;DHT22;10732;51.472;6.466;2023-08-01T12:08:46;20.40;99.90
21149;DHT22;10732;51.472;6.466;2023-08-01T12:11:27;20.20;1.00
21149;DHT22;10732;51.472;6.466;2023-08-01T12:14:06;19.70;1.00
21149;DHT22;10732;51.472;6.466;2023-08-01T12:16:33;19.40;1.00
21149;DHT22;10732;51.472;6.466;2023-08-01T12:18:58;19.50;1.00
21149;DHT22;10732;51.472;6.466;2023-08-01T12:21:24;19.80;1.00
21149;DHT22;10732;51.472;6.466;2023-08-01T12:23:49;19.70;1.00
21149;DHT22;10732;51.472;6.466;2023-08-01T12:26:15;20.40;1.00
21149;DHT22;10732;51.472;6.466;2023-08-01T12:28:40;21.00;1.00
21149;DHT22;10732;51.472;6.466;2023-08-01T12:31:06;21.30;1.00
21149;DHT22;10732;51.472;6.466;2023-08-01T12:33:32;21.20;1.00
21149;DHT22;10732;51.472;6.466;2023-08-01T12:35:59;21.20;99.90
21149;DHT22;10732;51.472;6.466;2023-08-01T12:38:25;21.30;99.90
21149;DHT22;10732;51.472;6.466;2023-08-01T12:40:50;21.10;1.00
21149;DHT22;10732;51.472;6.466;2023-08-01T12:43:16;20.90;58.00
21149;DHT22;10732;51.472;6.466;2023-08-01T12:45:42;20.70;99.90
21149;DHT22;10732;51.472;6.466;2023-08-01T12:48:08;20.30;99.90
21149;DHT22;10732;51.472;6.466;2023-08-01T12:50:34;20.60;1.00
21149;DHT22;10732;51.472;6.466;2023-08-01T12:52:59;20.60;1.00
21149;DHT22;10732;51.472;6.466;2023-08-01T12:55:25;21.10;1.00
21149;DHT22;10732;51.472;6.466;2023-08-01T12:57:50;21.70;99.90
21149;DHT22;10732;51.472;6.466;2023-08-01T13:00:16;21.50;1.00
21149;DHT22;10732;51.472;6.466;2023-08-01T13:02:42;21.50;1.00
21149;DHT22;10732;51.472;6.466;2023-08-01T13:05:08;21.40;99.90
21149;DHT22;10732;51.472;6.466;2023-08-01T13:07:33;21.70;99.90
21149;DHT22;10732;51.472;6.466;2023-08-01T13:10:00;21.60;1.00
21149;DHT22;10732;51.472;6.466;2023-08-01T13:12:26;21.30;1.00
21149;DHT22;10732;51.472;6.466;2023-08-01T13:14:51;21.20;1.00
21149;DHT22;10732;51.472;6.466;2023-08-01T13:17:17;21.60;1.00
21149;DHT22;10732;51.472;6.466;2023-08-01T13:19:43;22.10;1.00
21149;DHT22;10732;51.472;6.466;2023-08-01T13:22:09;22.40;1.00
21149;DHT22;10732;51.472;6.466;2023-08-01T13:24:34;22.40;1.00
21149;DHT22;10732;51.472;6.466;2023-08-01T13:27:00;22.40;1.00
21149;DHT22;10732;51.472;6.466;2023-08-01T13:29:25;22.40;1.00
21149;DHT22;10732;51.472;6.466;2023-08-01T13:31:52;22.40;99.90
21149;DHT22;10732;51.472;6.466;2023-08-01T13:34:17;22.10;1.00
21149;DHT22;10732;51.472;6.466;2023-08-01T13:36:43;22.20;1.00
21149;DHT22;10732;51.472;6.466;2023-08-01T13:39:09;22.30;1.00
21149;DHT22;10732;51.472;6.466;2023-08-01T13:41:34;22.50;99.90
21149;DHT22;10732;51.472;6.466;2023-08-01T13:44:00;22.40;99.90
21149;DHT22;10732;51.472;6.466;2023-08-01T13:46:26;22.40;1.00
21149;DHT22;10732;51.472;6.466;2023-08-01T13:48:51;22.50;99.90
21149;DHT22;10732;51.472;6.466;2023-08-01T13:51:17;22.60;99.90
21149;DHT22;10732;51.472;6.466;2023-08-01T13:53:43;22.70;99.90
21149;DHT22;10732;51.472;6.466;2023-08-01T13:56:09;22.90;99.90
21149;DHT22;10732;51.472;6.466;2023-08-01T13:58:35;22.60;99.90
21149;DHT22;10732;51.472;6.466;2023-08-01T14:01:05;22.60;99.90
21149;DHT22;10732;51.472;6.466;2023-08-01T14:03:32;22.60;99.90
21149;DHT22;10732;51.472;6.466;2023-08-01T14:06:14;23.10;99.90
21149;DHT22;10732;51.472;6.466;2023-08-01T14:08:40;22.90;1.00
21149;DHT22;10732;51.472;6.466;2023-08-01T14:11:08;23.10;1.00
21149;DHT22;10732;51.472;6.466;2023-08-01T14:13:34;23.00;1.00
21149;DHT22;10732;51.472;6.466;2023-08-01T14:16:01;23.00;1.00
21149;DHT22;10732;51.472;6.466;2023-08-01T14:18:27;22.90;56.40
21149;DHT22;10732;51.472;6.466;2023-08-01T14:20:53;22.90;1.00
21149;DHT22;10732;51.472;6.466;2023-08-01T14:23:19;23.00;1.00
21149;DHT22;10732;51.472;6.466;2023-08-01T14:25:45;22.90;1.00
21149;DHT22;10732;51.472;6.466;2023-08-01T14:40:11;22.70;1.00
21149;DHT22;10732;51.472;6.466;2023-08-01T14:42:36;23.30;1.00
21149;DHT22;10732;51.472;6.466;2023-08-01T14:45:02;22.90;1.00
21149;DHT22;10732;51.472;6.466;2023-08-01T14:47:28;22.70;1.00
21149;DHT22;10732;51.472;6.466;2023-08-01T14:49:55;22.50;1.00
21149;DHT22;10732;51.472;6.466;2023-08-01T14:52:21;22.70;1.00
21149;DHT22;10732;51.472;6.466;2023-08-01T14:54:47;22.70;1.00
21149;DHT22;10732;51.472;6.466;2023-08-01T14:57:13;22.50;1.00
21149;DHT22;10732;51.472;6.466;2023-08-01T14:59:39;22.40;1.00
21149;DHT22;10732;51.472;6.466;2023-08-01T15:02:05;22.40;1.00
21149;DHT22;10732;51.472;6.466;2023-08-01T15:04:31;22.20;1.00
21149;DHT22;10732;51.472;6.466;2023-08-01T15:06:57;22.20;1.00
21149;DHT22;10732;51.472;6.466;2023-08-01T15:09:22;22.30;1.00
21149;DHT22;10732;51.472;6.466;2023-08-01T15:11:48;22.50;1.00
21149;DHT22;10732;51.472;6.466;2023-08-01T15:14:13;22.70;1.00
21149;DHT22;10732;51.472;6.466;2023-08-01T15:16:39;22.70;1.00
21149;DHT22;10732;51.472;6.466;2023-08-01T15:19:05;22.70;1.00
21149;DHT22;10732;51.472;6.466;2023-08-01T15:21:30;22.50;1.00
21149;DHT22;10732;51.472;6.466;2023-08-01T15:23:56;22.30;1.00
21149;DHT22;10732;51.472;6.466;2023-08-01T15:26:21;22.00;1.00
21149;DHT22;10732;51.472;6.466;2023-08-01T15:28:47;21.90;1.00
21149;DHT22;10732;51.472;6.466;2023-08-01T15:31:13;22.20;1.00
21149;DHT22;10732;51.472;6.466;2023-08-01T15:33:41;22.20;3.90
21149;DHT22;10732;51.472;6.466;2023-08-01T15:36:08;22.20;1.00
21149;DHT22;10732;51.472;6.466;2023-08-01T15:38:35;22.20;1.00
21149;DHT22;10732;51.472;6.466;2023-08-01T15:41:01;22.10;1.00
21149;DHT22;10732;51.472;6.466;2023-08-01T15:43:32;22.40;1.00
21149;DHT22;10732;51.472;6.466;2023-08-01T15:45:58;22.40;1.00